Time;durP1;ratioP1;P1;durP2;ratioP2;P2;SDS_P1;SDS_P2;PMS_P1;PMS_P2;Temp;Humidity;BMP_temperature;BMP_pressure;BME280_temperature;BME280_humidity;BME280_pressure;Samples;Min_cycle;Max_cycle;Signal;HPM_P1;HPM_P2
2023/03/20 00:01:08;;;;;;;;;;;;;;;1.61;79.14;93772.94;5064733;28;20562;-37
2023/03/20 00:03:34;;;;;;;;;;;;;;;1.82;77.94;93766.91;5049684;28;20065;-38
2023/03/20 00:05:59;;;;;;;;;;;;;;;1.67;77.12;93771.03;5049521;28;20073;-38
2023/03/20 00:08:24;;;;;;;;;;;;;;;1.50;77.26;93760.75;5049495;28;19933;-38
2023/03/20 00:10:50;;;;;;;;;;;;;;;1.50;77.03;93774.34;5049697;28;19940;-38
2023/03/20 00:13:21;;;;;;;;;;;;;;;1.43;77.49;93760.44;5049388;28;20055;-38
2023/03/20 00:15:47;;;;;;;;;;;;;;;1.15;79.37;93760.19;5065082;28;19988;-38
2023/03/20 00:18:20;;;;;;;;;;;;;;;1.40;78.81;93758.69;5049737;28;19930;-38
2023/03/20 00:20:46;;;;;;;;;;;;;;;1.29;78.83;93753.91;5049658;28;19940;-38
2023/03/20 00:23:11;;;;;;;;;;;;;;;1.24;78.14;93749.16;5032844;28;20023;-38
2023/03/20 00:25:38;;;;;;;;;;;;;;;1.25;77.34;93745.22;5029340;28;19930;-38
2023/03/20 00:28:10;;;;;;;;;;;;;;;1.43;77.69;93744.09;5029339;28;20476;-38
2023/03/20 00:30:35;;;;;;;;;;;;;;;1.30;77.33;93744.50;5044903;28;20404;-38
2023/03/20 00:33:00;;;;;;;;;;;;;;;1.16;78.82;93745.38;5031136;28;20004;-38
2023/03/20 00:35:27;;;;;;;;;;;;;;;1.11;79.02;93746.06;5049121;28;19935;-38
2023/03/20 00:37:53;;;;;;;;;;;;;;;0.83;80.21;93736.88;5049092;28;20019;-38
2023/03/20 00:40:18;;;;;;;;;;;;;;;0.90;80.19;93739.19;5049060;28;20018;-38
2023/03/20 00:42:45;;;;;;;;;;;;;;;0.91;81.22;93731.78;5049391;28;19961;-38
2023/03/20 00:45:14;;;;;;;;;;;;;;;0.81;80.30;93739.34;5049052;28;19945;-38
2023/03/20 00:47:40;;;;;;;;;;;;;;;0.95;80.79;93735.78;5064552;28;19982;-38
2023/03/20 00:50:09;;;;;;;;;;;;;;;0.93;80.34;93730.09;5064650;28;19938;-38
2023/03/20 00:52:34;;;;;;;;;;;;;;;0.93;80.52;93729.34;5052188;28;19937;-37
2023/03/20 00:55:00;;;;;;;;;;;;;;;1.10;79.60;93719.34;5034109;28;19980;-38
2023/03/20 00:57:27;;;;;;;;;;;;;;;0.93;78.71;93719.22;5049599;28;20416;-38
2023/03/20 00:59:58;;;;;;;;;;;;;;;0.60;79.85;93713.44;5064433;28;20469;-38
2023/03/20 01:02:25;;;;;;;;;;;;;;;0.88;79.45;93711.00;5049382;28;20013;-38
2023/03/20 01:04:51;;;;;;;;;;;;;;;0.88;78.82;93709.03;5048761;28;19935;-38
2023/03/20 01:07:17;;;;;;;;;;;;;;;0.82;78.92;93705.53;5049017;28;19931;-38
2023/03/20 01:09:42;;;;;;;;;;;;;;;0.77;79.76;93698.81;5049352;28;19933;-38
2023/03/20 01:12:09;;;;;;;;;;;;;;;0.78;79.95;93707.69;5052832;28;19927;-38
2023/03/20 01:14:35;;;;;;;;;;;;;;;0.68;79.99;93704.38;5068434;28;20392;-38
2023/03/20 01:17:00;;;;;;;;;;;;;;;0.85;79.31;93707.25;5052987;28;20072;-38
2023/03/20 01:19:25;;;;;;;;;;;;;;;0.92;78.48;93708.81;5036193;28;19976;-38
2023/03/20 01:21:51;;;;;;;;;;;;;;;0.93;78.85;93702.16;5032899;28;19941;-38
2023/03/20 01:24:16;;;;;;;;;;;;;;;0.70;80.11;93704.66;5032530;28;20000;-38
2023/03/20 01:26:44;;;;;;;;;;;;;;;0.86;79.32;93708.00;5032639;28;19937;-38
2023/03/20 01:29:16;;;;;;;;;;;;;;;0.57;80.16;93700.78;5032783;28;20020;-38
2023/03/20 01:31:41;;;;;;;;;;;;;;;0.30;81.22;93702.00;5032086;28;19924;-38
2023/03/20 01:34:08;;;;;;;;;;;;;;;0.21;82.19;93695.97;5043567;28;19945;-38
2023/03/20 01:36:33;;;;;;;;;;;;;;;0.10;82.62;93698.53;5067776;28;20460;-38
2023/03/20 01:38:59;;;;;;;;;;;;;;;0.27;82.33;93700.22;5067871;28;19934;-38
2023/03/20 01:41:25;;;;;;;;;;;;;;;-0.02;82.69;93695.69;5052563;28;19957;-38
2023/03/20 01:43:50;;;;;;;;;;;;;;;0.30;81.68;93704.72;5052508;28;19929;-38
2023/03/20 01:46:21;;;;;;;;;;;;;;;-0.04;81.37;93706.28;5052272;28;20426;-38
2023/03/20 01:48:49;;;;;;;;;;;;;;;0.14;82.00;93699.06;5067217;28;20546;-38
2023/03/20 01:51:15;;;;;;;;;;;;;;;0.31;80.38;93697.31;5050879;28;19953;-38
2023/03/20 01:53:40;;;;;;;;;;;;;;;0.16;81.78;93702.06;5031977;28;19949;-38
2023/03/20 01:56:06;;;;;;;;;;;;;;;-0.08;82.76;93697.59;5046290;28;19930;-38
2023/03/20 01:58:34;;;;;;;;;;;;;;;-0.02;82.78;93705.78;5067586;28;19932;-38
2023/03/20 02:01:00;;;;;;;;;;;;;;;0.12;81.05;93696.84;5066991;28;20648;-38
2023/03/20 02:03:25;;;;;;;;;;;;;;;-0.15;81.62;93697.22;5067390;28;19991;-38
2023/03/20 02:05:50;;;;;;;;;;;;;;;0.06;81.43;93693.31;5067226;28;19940;-38
2023/03/20 02:08:28;;;;;;;;;;;;;;;0.12;81.26;93696.84;5067215;28;20023;-38
2023/03/20 02:10:55;;;;;;;;;;;;;;;0.44;80.61;93692.25;5051505;28;20394;-38
2023/03/20 02:13:20;;;;;;;;;;;;;;;0.19;81.35;93693.72;5067331;28;20536;-38
2023/03/20 02:16:04;;;;;;;;;;;;;;;0.21;81.31;93695.97;5034465;28;19937;-38
2023/03/20 02:18:30;;;;;;;;;;;;;;;-0.07;81.98;93695.63;5031614;28;20037;-38
2023/03/20 02:20:55;;;;;;;;;;;;;;;0.09;82.39;93692.34;5031404;28;20153;-38
2023/03/20 02:23:29;;;;;;;;;;;;;;;0.12;82.50;93694.13;5030600;28;20575;-38
2023/03/20 02:26:13;;;;;;;;;;;;;;;0.25;80.33;93691.06;5031835;28;20036;-38
2023/03/20 02:28:48;;;;;;;;;;;;;;;-0.01;81.28;93691.00;5031468;28;19932;-38
2023/03/20 02:31:32;;;;;;;;;;;;;;;-0.04;81.00;93700.84;5031462;28;19931;-38
2023/03/20 02:34:01;;;;;;;;;;;;;;;0.06;81.36;93692.56;5041615;28;19948;-38
2023/03/20 02:36:38;;;;;;;;;;;;;;;-0.24;81.56;93695.38;5051315;28;19937;-38
2023/03/20 02:39:21;;;;;;;;;;;;;;;-0.34;82.25;93696.00;5051457;28;19989;-38
2023/03/20 02:41:53;;;;;;;;;;;;;;;0.14;80.77;93690.94;5051194;28;20415;-38
2023/03/20 02:44:37;;;;;;;;;;;;;;;-0.08;80.58;93684.00;5051291;28;19931;-38
2023/03/20 02:47:03;;;;;;;;;;;;;;;-0.08;81.60;93678.59;5051236;28;20343;-38
2023/03/20 02:49:28;;;;;;;;;;;;;;;-0.43;82.18;93682.53;5066425;28;19940;-38
2023/03/20 02:51:56;;;;;;;;;;;;;;;-0.34;83.26;93683.19;5044604;28;19937;-38
2023/03/20 02:54:38;;;;;;;;;;;;;;;-0.15;81.78;93678.97;5031157;28;19961;-38
2023/03/20 02:57:04;;;;;;;;;;;;;;;-0.01;80.55;93680.16;5043096;28;19934;-38
2023/03/20 03:00:08;;;;;;;;;;;;;;;0.12;79.97;93671.66;5042998;28;19966;-39
2023/03/20 03:02:34;;;;;;;;;;;;;;;0.24;79.11;93679.44;5028546;28;19929;-38
2023/03/20 03:05:00;;;;;;;;;;;;;;;0.26;79.03;93681.72;5014373;28;20003;-38
2023/03/20 03:07:27;;;;;;;;;;;;;;;-0.15;80.25;93678.22;5043429;28;20033;-38
2023/03/20 03:09:54;;;;;;;;;;;;;;;-0.45;81.38;93684.97;5043173;28;19930;-38
2023/03/20 03:12:20;;;;;;;;;;;;;;;-0.66;83.04;93683.44;5046019;28;19942;-38
2023/03/20 03:14:47;;;;;;;;;;;;;;;-0.75;83.78;93681.59;5045907;28;20528;-38
2023/03/20 03:17:12;;;;;;;;;;;;;;;-0.77;84.53;93684.03;5045979;28;20346;-38
2023/03/20 03:19:38;;;;;;;;;;;;;;;-0.70;84.44;93683.66;5045918;28;19935;-38
2023/03/20 03:22:04;;;;;;;;;;;;;;;-0.48;84.51;93689.41;5045817;28;19933;-38
2023/03/20 03:24:31;;;;;;;;;;;;;;;-0.51;82.47;93684.91;5046065;28;19933;-37
2023/03/20 03:26:58;;;;;;;;;;;;;;;-0.82;83.06;93681.97;5030053;28;19933;-38
2023/03/20 03:29:23;;;;;;;;;;;;;;;-0.64;83.14;93681.75;5045667;28;19934;-38
2023/03/20 03:31:48;;;;;;;;;;;;;;;-0.24;81.49;93683.81;5045785;28;20002;-38
2023/03/20 03:34:14;;;;;;;;;;;;;;;-0.25;80.98;93680.34;5042418;28;19950;-38
2023/03/20 03:36:40;;;;;;;;;;;;;;;-0.37;81.09;93680.66;5050109;28;19966;-38
2023/03/20 03:39:28;;;;;;;;;;;;;;;-0.50;80.95;93678.28;5050258;28;19969;-38
2023/03/20 03:42:00;;;;;;;;;;;;;;;-0.36;79.91;93677.47;5046908;28;20468;-38
2023/03/20 03:44:26;;;;;;;;;;;;;;;-0.21;79.48;93678.16;5050360;28;19940;-38
2023/03/20 03:46:52;;;;;;;;;;;;;;;-0.48;80.64;93675.84;5049784;28;20025;-38
2023/03/20 03:49:19;;;;;;;;;;;;;;;-0.53;81.16;93671.09;5065508;28;20022;-38
2023/03/20 03:51:45;;;;;;;;;;;;;;;-0.47;80.65;93677.31;5060007;28;19935;-38
2023/03/20 03:54:12;;;;;;;;;;;;;;;-0.58;81.02;93674.44;5045287;28;19953;-38
2023/03/20 03:56:38;;;;;;;;;;;;;;;-0.78;82.02;93669.00;5063500;28;20424;-38
2023/03/20 03:59:17;;;;;;;;;;;;;;;-0.87;82.37;93671.81;5065072;28;19934;-38
2023/03/20 04:01:43;;;;;;;;;;;;;;;-0.97;82.56;93678.53;5049603;28;19961;-38
2023/03/20 04:04:08;;;;;;;;;;;;;;;-0.85;82.40;93678.25;5065554;28;20315;-38
2023/03/20 04:06:34;;;;;;;;;;;;;;;-0.91;82.43;93677.41;5062275;28;19931;-38
2023/03/20 04:08:59;;;;;;;;;;;;;;;-0.95;82.90;93678.81;5045127;28;20007;-38
2023/03/20 04:11:25;;;;;;;;;;;;;;;-1.10;83.49;93672.66;5029681;28;20077;-38
2023/03/20 04:13:50;;;;;;;;;;;;;;;-1.24;84.50;93676.91;5045193;28;19969;-38
2023/03/20 04:16:16;;;;;;;;;;;;;;;-1.14;84.75;93677.53;5029657;28;19934;-38
2023/03/20 04:18:41;;;;;;;;;;;;;;;-0.80;83.11;93666.75;5029535;28;20028;-38
2023/03/20 04:21:07;;;;;;;;;;;;;;;-0.61;82.44;93659.16;5029827;28;19942;-38
2023/03/20 04:23:32;;;;;;;;;;;;;;;-0.80;83.01;93668.69;5029725;28;19926;-38
2023/03/20 04:25:58;;;;;;;;;;;;;;;-0.65;83.18;93669.41;5029514;28;19941;-38
2023/03/20 04:28:23;;;;;;;;;;;;;;;-0.55;81.52;93670.06;5029323;28;19939;-38
2023/03/20 04:30:55;;;;;;;;;;;;;;;-0.60;80.82;93674.19;5027915;28;19936;-38
2023/03/20 04:33:20;;;;;;;;;;;;;;;-0.59;80.98;93667.56;5034057;28;20001;-38
2023/03/20 04:35:46;;;;;;;;;;;;;;;-0.39;80.76;93673.00;5049533;28;19938;-38
2023/03/20 04:38:11;;;;;;;;;;;;;;;-0.46;80.55;93669.94;5049081;28;19950;-38
2023/03/20 04:40:36;;;;;;;;;;;;;;;-0.48;80.90;93665.00;5049247;28;19929;-38
2023/03/20 04:43:02;;;;;;;;;;;;;;;-0.68;81.58;93662.25;5049270;28;19969;-38
2023/03/20 04:45:27;;;;;;;;;;;;;;;-0.60;81.21;93668.75;5051032;28;19936;-38
2023/03/20 04:47:52;;;;;;;;;;;;;;;-0.42;80.75;93673.19;5053543;28;19954;-38
2023/03/20 04:50:17;;;;;;;;;;;;;;;-0.45;80.85;93674.13;5053124;28;19936;-38
2023/03/20 04:52:43;;;;;;;;;;;;;;;-0.46;81.02;93673.41;5040071;28;19928;-38
2023/03/20 04:55:08;;;;;;;;;;;;;;;-0.25;80.02;93682.31;5039247;28;19951;-38
2023/03/20 04:57:33;;;;;;;;;;;;;;;-0.18;79.85;93671.81;5053095;28;19942;-38
2023/03/20 04:59:59;;;;;;;;;;;;;;;-0.03;79.33;93669.03;5053198;28;19962;-38
2023/03/20 05:02:24;;;;;;;;;;;;;;;-0.20;78.28;93676.97;5052968;28;19919;-38
2023/03/20 05:04:49;;;;;;;;;;;;;;;-0.07;79.71;93671.19;5033246;28;19940;-38
2023/03/20 05:07:15;;;;;;;;;;;;;;;0.08;79.49;93680.03;5033360;28;20444;-38
2023/03/20 05:09:40;;;;;;;;;;;;;;;-0.08;79.39;93675.88;5033087;28;19930;-38
2023/03/20 05:12:05;;;;;;;;;;;;;;;-0.07;79.81;93674.66;5033050;28;19958;-38
2023/03/20 05:14:31;;;;;;;;;;;;;;;0.05;80.52;93675.53;5033106;28;20050;-38
2023/03/20 05:16:56;;;;;;;;;;;;;;;0.11;79.48;93675.63;5032711;28;19935;-38
2023/03/20 05:19:21;;;;;;;;;;;;;;;0.07;80.26;93675.78;5033207;28;19940;-38
2023/03/20 05:21:46;;;;;;;;;;;;;;;0.39;80.12;93673.97;5032979;28;19941;-38
2023/03/20 05:24:12;;;;;;;;;;;;;;;0.12;80.63;93682.53;5032944;28;19936;-38
2023/03/20 05:26:37;;;;;;;;;;;;;;;0.52;80.05;93682.50;5032946;28;20439;-38
2023/03/20 05:29:02;;;;;;;;;;;;;;;0.99;77.98;93687.38;5032550;28;20026;-38
2023/03/20 05:31:27;;;;;;;;;;;;;;;0.83;77.84;93684.50;5032703;28;19923;-38
2023/03/20 05:33:53;;;;;;;;;;;;;;;1.28;76.72;93691.81;5041721;28;19966;-38
2023/03/20 05:36:18;;;;;;;;;;;;;;;1.58;76.10;93681.41;5052865;28;20024;-38
2023/03/20 05:38:43;;;;;;;;;;;;;;;1.41;76.27;93690.19;5052678;28;19931;-38
2023/03/20 05:41:09;;;;;;;;;;;;;;;1.76;76.26;93687.19;5052705;28;19931;-38
2023/03/20 05:43:34;;;;;;;;;;;;;;;2.16;75.08;93686.19;5052562;28;19980;-37
2023/03/20 05:46:00;;;;;;;;;;;;;;;2.32;73.25;93687.47;5052661;28;20430;-38
2023/03/20 05:48:25;;;;;;;;;;;;;;;2.88;71.67;93689.84;5052132;28;19935;-38
2023/03/20 05:50:50;;;;;;;;;;;;;;;3.19;71.29;93688.16;5052307;28;19937;-38
2023/03/20 05:53:15;;;;;;;;;;;;;;;3.47;69.68;93686.94;5034224;28;20814;-38
2023/03/20 05:55:43;;;;;;;;;;;;;;;3.37;70.63;93688.44;5042430;28;19943;-38
2023/03/20 05:58:08;;;;;;;;;;;;;;;3.86;69.70;93692.34;5052198;28;20027;-38
2023/03/20 06:00:33;;;;;;;;;;;;;;;4.23;68.68;93683.81;5036290;28;20513;-38
2023/03/20 06:02:59;;;;;;;;;;;;;;;4.50;68.05;93686.44;5032047;28;19969;-38
2023/03/20 06:05:24;;;;;;;;;;;;;;;5.09;66.08;93687.88;5032157;28;20338;-38
2023/03/20 06:07:51;;;;;;;;;;;;;;;5.46;65.83;93688.09;5031898;28;19923;-38
2023/03/20 06:10:18;;;;;;;;;;;;;;;5.68;65.09;93681.69;5031979;28;20015;-39
2023/03/20 06:12:44;;;;;;;;;;;;;;;6.10;64.65;93689.31;5031793;28;19946;-39
2023/03/20 06:15:10;;;;;;;;;;;;;;;6.09;64.13;93696.03;5031508;28;19956;-39
2023/03/20 06:17:35;;;;;;;;;;;;;;;6.17;63.93;93685.25;5031825;28;19938;-39
2023/03/20 06:20:00;;;;;;;;;;;;;;;6.41;62.95;93685.97;5031808;28;19938;-39
2023/03/20 06:22:26;;;;;;;;;;;;;;;6.49;62.76;93694.38;5031641;28;19935;-39
2023/03/20 06:24:51;;;;;;;;;;;;;;;6.99;61.23;93697.25;5031437;28;20422;-39
2023/03/20 06:27:17;;;;;;;;;;;;;;;7.25;60.83;93691.13;5031678;28;19934;-38
2023/03/20 06:29:42;;;;;;;;;;;;;;;8.19;59.04;93695.09;5031251;28;20335;-38
2023/03/20 06:32:08;;;;;;;;;;;;;;;8.67;56.87;93694.72;5030921;28;19931;-38
2023/03/20 06:34:33;;;;;;;;;;;;;;;9.44;54.77;93691.59;5031309;28;19952;-38
2023/03/20 06:36:58;;;;;;;;;;;;;;;10.31;53.11;93687.97;5031221;28;20526;-38
2023/03/20 06:39:24;;;;;;;;;;;;;;;11.12;50.69;93684.75;5031187;28;19933;-38
2023/03/20 06:41:49;;;;;;;;;;;;;;;12.06;49.22;93685.38;5031058;28;19931;-37
2023/03/20 06:44:14;;;;;;;;;;;;;;;12.95;47.12;93679.53;5030980;28;20332;-38
2023/03/20 06:46:40;;;;;;;;;;;;;;;13.50;45.58;93685.09;5031043;28;19930;-38
2023/03/20 06:49:05;;;;;;;;;;;;;;;13.44;44.82;93679.03;5030631;28;20019;-38
2023/03/20 06:51:31;;;;;;;;;;;;;;;14.00;44.44;93675.53;5031109;28;20353;-38
2023/03/20 06:53:57;;;;;;;;;;;;;;;14.92;41.98;93682.56;5030785;28;19960;-39
2023/03/20 06:56:22;;;;;;;;;;;;;;;15.19;40.82;93677.06;5030487;28;19945;-39
2023/03/20 06:58:47;;;;;;;;;;;;;;;15.48;40.09;93677.31;5030596;28;19939;-39
2023/03/20 07:01:15;;;;;;;;;;;;;;;16.23;39.46;93676.28;5030703;28;19965;-39
2023/03/20 07:03:40;;;;;;;;;;;;;;;16.79;37.25;93676.31;5030654;28;20405;-39
2023/03/20 07:06:06;;;;;;;;;;;;;;;17.15;38.17;93676.94;5030949;28;19937;-39
2023/03/20 07:08:32;;;;;;;;;;;;;;;17.26;37.05;93679.16;5029860;28;20019;-39
2023/03/20 07:10:57;;;;;;;;;;;;;;;17.49;36.83;93677.97;5030926;28;19987;-38
2023/03/20 07:13:22;;;;;;;;;;;;;;;18.35;36.36;93675.00;5030458;28;19953;-38
2023/03/20 07:15:48;;;;;;;;;;;;;;;18.23;34.84;93666.53;5030724;28;19934;-38
2023/03/20 07:18:13;;;;;;;;;;;;;;;18.32;34.43;93662.22;5030325;28;20065;-38
2023/03/20 07:20:38;;;;;;;;;;;;;;;18.78;34.23;93668.94;5030659;28;19939;-38
2023/03/20 07:23:04;;;;;;;;;;;;;;;19.00;33.04;93661.28;5030022;28;19936;-38
2023/03/20 07:25:29;;;;;;;;;;;;;;;19.80;32.70;93660.22;5030431;28;19936;-38
2023/03/20 07:27:54;;;;;;;;;;;;;;;19.51;33.91;93670.97;5030009;28;20393;-38
2023/03/20 07:30:20;;;;;;;;;;;;;;;19.98;32.39;93661.38;5030416;28;19934;-38
2023/03/20 07:32:45;;;;;;;;;;;;;;;19.86;32.17;93663.38;5030001;28;19933;-38
2023/03/20 07:35:10;;;;;;;;;;;;;;;19.56;32.81;93658.66;5050088;28;19960;-39
2023/03/20 07:37:36;;;;;;;;;;;;;;;18.62;34.64;93667.84;5049905;28;20378;-38
2023/03/20 07:40:02;;;;;;;;;;;;;;;19.16;35.64;93662.38;5050060;28;19930;-38
2023/03/20 07:42:27;;;;;;;;;;;;;;;20.47;33.56;93665.09;5049766;28;19966;-38
2023/03/20 07:44:52;;;;;;;;;;;;;;;20.54;32.24;93657.78;5050636;28;19988;-38
2023/03/20 07:47:17;;;;;;;;;;;;;;;20.73;32.00;93661.09;5050793;28;20323;-38
2023/03/20 07:49:43;;;;;;;;;;;;;;;20.49;32.28;93668.03;5050245;28;19955;-38
2023/03/20 07:52:08;;;;;;;;;;;;;;;21.55;30.43;93664.50;5041832;28;20418;-39
2023/03/20 07:54:33;;;;;;;;;;;;;;;22.79;28.15;93667.81;5030193;28;19950;-39
2023/03/20 07:56:58;;;;;;;;;;;;;;;23.86;26.75;93656.31;5030311;28;19930;-38
2023/03/20 07:59:24;;;;;;;;;;;;;;;22.89;28.08;93656.38;5030600;28;19932;-38
2023/03/20 08:01:49;;;;;;;;;;;;;;;23.00;29.63;93661.88;5030213;28;20450;-38
2023/03/20 08:04:21;;;;;;;;;;;;;;;23.69;28.47;93665.38;5029523;28;20266;-39
2023/03/20 08:06:46;;;;;;;;;;;;;;;22.83;26.58;93661.66;5030180;28;20030;-39
2023/03/20 08:09:11;;;;;;;;;;;;;;;22.57;28.46;93661.00;5030397;28;20028;-39
2023/03/20 08:11:36;;;;;;;;;;;;;;;23.33;27.50;93656.56;5030209;28;20459;-39
2023/03/20 08:14:02;;;;;;;;;;;;;;;23.50;27.76;93658.09;5030265;28;20050;-39
2023/03/20 08:16:27;;;;;;;;;;;;;;;23.88;27.96;93657.16;5030176;28;20476;-39
2023/03/20 08:18:55;;;;;;;;;;;;;;;23.34;26.16;93646.75;5029991;28;19941;-38
2023/03/20 08:21:20;;;;;;;;;;;;;;;24.25;24.47;93641.97;5029867;28;20316;-39
2023/03/20 08:23:45;;;;;;;;;;;;;;;23.86;26.75;93657.06;5029909;28;19932;-39
2023/03/20 08:26:11;;;;;;;;;;;;;;;23.95;25.24;93655.34;5029983;28;20023;-39
2023/03/20 08:28:36;;;;;;;;;;;;;;;24.90;26.04;93654.84;5030191;28;20314;-39
2023/03/20 08:31:05;;;;;;;;;;;;;;;25.67;24.81;93658.16;5029596;28;20391;-39
2023/03/20 08:33:30;;;;;;;;;;;;;;;25.54;23.99;93657.66;5051504;28;20042;-38
2023/03/20 08:35:56;;;;;;;;;;;;;;;26.31;24.35;93663.63;5049767;28;20372;-39
2023/03/20 08:38:21;;;;;;;;;;;;;;;25.16;24.26;93664.47;5049728;28;19936;-38
2023/03/20 08:40:47;;;;;;;;;;;;;;;26.14;23.77;93656.59;5049905;28;19939;-39
2023/03/20 08:43:12;;;;;;;;;;;;;;;25.48;25.76;93665.16;5049820;28;19940;-39
2023/03/20 08:45:37;;;;;;;;;;;;;;;26.06;24.60;93664.00;5049224;28;19973;-39
2023/03/20 08:48:02;;;;;;;;;;;;;;;25.95;23.14;93653.66;5044029;28;20351;-38
2023/03/20 08:50:28;;;;;;;;;;;;;;;25.67;23.28;93652.50;5028984;28;19935;-39
2023/03/20 08:52:54;;;;;;;;;;;;;;;25.26;23.73;93652.88;5028975;28;19931;-39
2023/03/20 08:55:19;;;;;;;;;;;;;;;25.13;24.94;93662.94;5029227;28;19941;-39
2023/03/20 08:57:44;;;;;;;;;;;;;;;23.83;25.91;93655.50;5028966;28;19935;-39
2023/03/20 09:00:11;;;;;;;;;;;;;;;25.23;24.24;93652.06;5029201;28;19962;-39
2023/03/20 09:03:14;;;;;;;;;;;;;;;25.68;23.87;93649.03;5044780;28;19959;-39
2023/03/20 09:05:40;;;;;;;;;;;;;;;27.01;24.35;93648.56;5029311;28;19940;-39
2023/03/20 09:08:05;;;;;;;;;;;;;;;28.17;22.95;93646.22;5029011;28;20421;-37
2023/03/20 09:10:31;;;;;;;;;;;;;;;27.82;21.10;93645.72;5029122;28;19931;-38
2023/03/20 09:12:56;;;;;;;;;;;;;;;28.28;20.51;93647.97;5028948;28;19932;-38
2023/03/20 09:15:21;;;;;;;;;;;;;;;29.21;20.01;93642.97;5029143;28;19943;-38
2023/03/20 09:17:47;;;;;;;;;;;;;;;28.75;19.58;93638.03;5028977;28;20388;-38
2023/03/20 09:20:12;;;;;;;;;;;;;;;28.80;20.79;93636.78;5029219;28;19931;-38
2023/03/20 09:22:39;;;;;;;;;;;;;;;28.98;20.22;93625.91;5029121;28;19926;-38
2023/03/20 09:25:05;;;;;;;;;;;;;;;29.56;18.99;93633.22;5028917;28;20031;-38
2023/03/20 09:27:30;;;;;;;;;;;;;;;29.23;19.53;93636.59;5028606;28;20027;-38
2023/03/20 09:29:56;;;;;;;;;;;;;;;28.94;19.69;93631.47;5028840;28;19927;-38
2023/03/20 09:32:21;;;;;;;;;;;;;;;29.55;19.64;93625.38;5031704;28;19941;-38
2023/03/20 09:34:46;;;;;;;;;;;;;;;29.71;18.98;93622.94;5049219;28;19967;-38
2023/03/20 09:37:11;;;;;;;;;;;;;;;28.65;19.39;93627.13;5052393;28;19932;-38
2023/03/20 09:39:37;;;;;;;;;;;;;;;29.21;19.43;93617.38;5052605;28;19932;-38
2023/03/20 09:42:07;;;;;;;;;;;;;;;29.82;19.04;93616.13;5052620;28;20044;-38
2023/03/20 09:44:53;;;;;;;;;;;;;;;28.53;19.40;93607.56;5067932;28;19957;-38
2023/03/20 09:47:22;;;;;;;;;;;;;;;29.28;19.02;93609.75;5067551;28;20389;-38
2023/03/20 09:49:50;;;;;;;;;;;;;;;29.82;18.37;93602.63;5067559;28;19930;-38
2023/03/20 09:52:35;;;;;;;;;;;;;;;29.55;18.38;93605.44;5042604;28;19936;-38
2023/03/20 09:55:01;;;;;;;;;;;;;;;29.90;18.59;93593.56;5052019;28;19950;-38
2023/03/20 09:57:53;;;;;;;;;;;;;;;29.49;17.56;93591.81;5051867;28;19968;-38
2023/03/20 10:00:19;;;;;;;;;;;;;;;30.16;17.43;93594.19;5050503;28;19966;-38
2023/03/20 10:02:48;;;;;;;;;;;;;;;30.35;15.90;93586.78;5067445;28;19936;-38
2023/03/20 10:05:18;;;;;;;;;;;;;;;30.26;18.02;93585.88;5051944;28;19931;-38
2023/03/20 10:07:44;;;;;;;;;;;;;;;29.87;16.51;93583.50;5051731;28;20458;-38
2023/03/20 10:10:12;;;;;;;;;;;;;;;29.99;15.91;93572.44;5067237;28;20031;-38
2023/03/20 10:12:37;;;;;;;;;;;;;;;30.01;18.47;93571.75;5067179;28;19973;-38
2023/03/20 10:15:05;;;;;;;;;;;;;;;30.66;17.47;93574.66;5051242;28;20468;-38
2023/03/20 10:17:30;;;;;;;;;;;;;;;30.15;17.90;93564.25;5051808;28;19970;-38
2023/03/20 10:19:56;;;;;;;;;;;;;;;30.31;17.83;93558.22;5051606;28;19978;-38
2023/03/20 10:22:25;;;;;;;;;;;;;;;30.07;16.75;93557.66;5066964;28;19936;-38
2023/03/20 10:24:50;;;;;;;;;;;;;;;30.97;16.13;93559.63;5050684;28;19932;-38
2023/03/20 10:27:24;;;;;;;;;;;;;;;30.34;17.77;93554.03;5031041;28;19940;-38
2023/03/20 10:30:05;;;;;;;;;;;;;;;30.38;18.16;93556.97;5031283;28;19944;-38
2023/03/20 10:32:39;;;;;;;;;;;;;;;30.94;16.42;93548.88;5031132;28;20004;-38
2023/03/20 10:35:25;;;;;;;;;;;;;;;30.97;16.85;93545.38;5050413;28;19949;-38
2023/03/20 10:37:51;;;;;;;;;;;;;;;30.83;17.75;93536.53;5066520;28;19978;-38
2023/03/20 10:40:19;;;;;;;;;;;;;;;30.91;16.12;93527.44;5050981;28;19931;-38
2023/03/20 10:42:46;;;;;;;;;;;;;;;30.22;15.98;93531.66;5065499;28;20413;-38
2023/03/20 10:45:11;;;;;;;;;;;;;;;29.77;17.00;93524.22;5038627;28;19946;-38
2023/03/20 10:47:37;;;;;;;;;;;;;;;30.69;17.25;93511.31;5030971;28;19927;-38
2023/03/20 10:50:18;;;;;;;;;;;;;;;30.46;15.84;93514.38;5046476;28;19934;-38
2023/03/20 10:52:44;;;;;;;;;;;;;;;29.31;18.30;93523.06;5046465;28;19930;-38
2023/03/20 10:55:11;;;;;;;;;;;;;;;30.19;17.53;93504.53;5046276;28;19950;-38
2023/03/20 10:57:38;;;;;;;;;;;;;;;29.84;17.57;93505.88;5046367;28;20022;-38
2023/03/20 11:00:03;;;;;;;;;;;;;;;29.09;18.31;93514.66;5046013;28;20514;-38
2023/03/20 11:02:30;;;;;;;;;;;;;;;28.45;18.34;93510.03;5030979;28;20031;-38
2023/03/20 11:04:58;;;;;;;;;;;;;;;28.18;19.30;93508.53;5030514;28;19935;-38
2023/03/20 11:07:35;;;;;;;;;;;;;;;28.65;18.92;93504.22;5046343;28;19930;-38
2023/03/20 11:10:04;;;;;;;;;;;;;;;29.34;17.90;93501.81;5046160;28;19988;-38
2023/03/20 11:12:33;;;;;;;;;;;;;;;29.81;16.87;93495.84;5030572;28;20446;-38
2023/03/20 11:14:59;;;;;;;;;;;;;;;29.48;17.63;93493.59;5030112;28;20063;-38
2023/03/20 11:17:27;;;;;;;;;;;;;;;29.90;17.29;93488.22;5030211;28;19938;-38
2023/03/20 11:19:52;;;;;;;;;;;;;;;29.19;17.11;93497.16;5030126;28;20039;-38
2023/03/20 11:22:18;;;;;;;;;;;;;;;30.08;17.05;93479.38;5030326;28;20015;-38
2023/03/20 11:24:43;;;;;;;;;;;;;;;29.28;17.13;93493.13;5030211;28;19934;-38
2023/03/20 11:27:13;;;;;;;;;;;;;;;28.95;17.08;93479.44;5045486;28;19980;-38
2023/03/20 11:29:39;;;;;;;;;;;;;;;28.94;19.12;93487.25;5045572;28;19931;-38
2023/03/20 11:32:05;;;;;;;;;;;;;;;29.08;17.74;93478.38;5029975;28;19936;-38
2023/03/20 11:34:32;;;;;;;;;;;;;;;28.69;16.63;93473.06;5044751;28;19970;-38
2023/03/20 11:36:58;;;;;;;;;;;;;;;28.40;17.62;93466.56;5065078;28;19973;-38
2023/03/20 11:39:26;;;;;;;;;;;;;;;29.03;17.20;93463.31;5049967;28;20389;-38
2023/03/20 11:41:52;;;;;;;;;;;;;;;28.90;17.30;93463.66;5034204;28;19964;-38
2023/03/20 11:44:31;;;;;;;;;;;;;;;28.94;17.63;93469.47;5030201;28;20331;-38
2023/03/20 11:46:59;;;;;;;;;;;;;;;28.49;19.20;93459.72;5029955;28;19931;-38
2023/03/20 11:49:24;;;;;;;;;;;;;;;28.43;17.74;93461.69;5045058;28;19933;-38
2023/03/20 11:51:50;;;;;;;;;;;;;;;28.14;18.80;93456.56;5029706;28;19929;-38
2023/03/20 11:54:17;;;;;;;;;;;;;;;27.64;17.29;93450.09;5044776;28;19955;-38
2023/03/20 11:56:58;;;;;;;;;;;;;;;27.15;18.59;93455.59;5029810;28;20080;-38
2023/03/20 11:59:34;;;;;;;;;;;;;;;27.51;18.28;93442.59;5029968;28;20019;-38
2023/03/20 12:01:59;;;;;;;;;;;;;;;27.41;19.18;93445.88;5029766;28;19947;-38
2023/03/20 12:04:41;;;;;;;;;;;;;;;27.42;18.51;93443.72;5029447;28;19933;-38
2023/03/20 12:07:15;;;;;;;;;;;;;;;27.20;18.89;93440.19;5029658;28;19942;-38
2023/03/20 12:09:45;;;;;;;;;;;;;;;27.03;18.06;93436.09;5044767;28;19937;-38
2023/03/20 12:12:12;;;;;;;;;;;;;;;26.84;18.70;93431.94;5045055;28;19947;-38
2023/03/20 12:14:40;;;;;;;;;;;;;;;26.48;20.53;93433.50;5029521;28;20047;-38
2023/03/20 12:17:32;;;;;;;;;;;;;;;26.33;20.71;93423.78;5044562;28;19937;-38
2023/03/20 12:20:03;;;;;;;;;;;;;;;26.39;18.01;93425.38;5020782;28;20406;-38
2023/03/20 12:22:30;;;;;;;;;;;;;;;25.81;20.05;93421.88;5044583;28;19931;-38
2023/03/20 12:25:22;;;;;;;;;;;;;;;25.52;20.05;93425.72;5044770;28;20057;-38
2023/03/20 12:27:52;;;;;;;;;;;;;;;25.80;19.75;93420.41;5028651;28;19934;-38
2023/03/20 12:30:44;;;;;;;;;;;;;;;25.79;17.11;93413.31;5044588;28;20409;-38
2023/03/20 12:33:11;;;;;;;;;;;;;;;25.59;17.81;93409.72;5013161;28;20004;-38
2023/03/20 12:35:37;;;;;;;;;;;;;;;25.41;20.11;93406.16;5061558;28;20449;-38
2023/03/20 12:38:02;;;;;;;;;;;;;;;25.30;21.19;93407.16;5061050;28;19953;-38
2023/03/20 12:40:33;;;;;;;;;;;;;;;25.45;21.58;93407.09;5044757;28;19935;-38
2023/03/20 12:43:10;;;;;;;;;;;;;;;25.35;20.76;93400.28;5044728;28;19954;-38
2023/03/20 12:45:42;;;;;;;;;;;;;;;24.73;20.39;93396.41;5044483;28;20420;-38
2023/03/20 12:48:17;;;;;;;;;;;;;;;24.95;19.48;93388.13;5029339;28;19936;-38
2023/03/20 12:50:44;;;;;;;;;;;;;;;24.57;17.68;93389.38;5029001;28;19930;-38
2023/03/20 12:53:13;;;;;;;;;;;;;;;24.59;19.85;93386.63;5044174;28;19940;-38